createdAt,value
2022-12-01T00:04:33.810Z,99134.91
2022-12-01T00:09:54.017Z,99133.94
2022-12-01T00:15:00.875Z,99126.88
2022-12-01T00:20:03.729Z,99129.53
2022-12-01T00:25:06.835Z,99129.53
2022-12-01T00:30:13.145Z,99128.47
2022-12-01T00:35:16.774Z,99127.53
2022-12-01T00:40:19.590Z,99126.56
2022-12-01T00:45:23.685Z,99125.75
2022-12-01T00:50:27.049Z,99123.94
2022-12-01T00:55:30.135Z,99123.09
2022-12-01T01:00:42.526Z,99130.09
2022-12-01T01:05:45.329Z,99125.75
2022-12-01T01:10:49.257Z,99136.34
2022-12-01T01:16:00.182Z,99134.53
2022-12-01T01:21:05.293Z,99134.53
2022-12-01T01:26:10.261Z,99130.09
2022-12-01T01:31:17.159Z,99135.31
2022-12-01T01:36:20.860Z,99142.31
2022-12-01T01:41:24.974Z,99143.16
2022-12-01T01:46:31.182Z,99148.47
2022-12-01T01:51:37.782Z,99143.25
2022-12-01T01:56:40.505Z,99150.34
2022-12-01T02:01:45.106Z,99141.53
2022-12-01T02:06:48.142Z,99146.94
2022-12-01T02:12:11.422Z,99144.47
2022-12-01T02:17:28.039Z,99138.13
2022-12-01T02:22:47.217Z,99145.41
2022-12-01T02:28:26.403Z,99134.81
2022-12-01T02:33:36.147Z,99129.69
2022-12-01T02:38:41.822Z,99134.31
2022-12-01T02:43:50.029Z,99132.44
2022-12-01T02:48:58.471Z,99133.28
2022-12-01T02:54:03.584Z,99133.56
2022-12-01T02:59:10.792Z,99133.56
2022-12-01T03:04:26.046Z,99138.09
2022-12-01T03:09:40.901Z,99130.81
2022-12-01T03:14:52.741Z,99135.44
2022-12-01T03:20:04.303Z,99128.44
2022-12-01T03:25:08.694Z,99124.00
2022-12-01T03:30:13.863Z,99123.06
2022-12-01T03:35:23.868Z,99124.00
2022-12-01T03:40:29.502Z,99128.38
2022-12-01T03:45:41.505Z,99122.97
2022-12-01T03:50:57.724Z,99119.28
2022-12-01T03:56:06.404Z,99116.81
2022-12-01T04:01:10.052Z,99121.19
2022-12-01T04:06:14.171Z,99133.38
2022-12-01T04:11:34.465Z,99124.59
2022-12-01T04:16:37.281Z,99126.38
2022-12-01T04:21:41.816Z,99131.59
2022-12-01T04:26:45.957Z,99128.06
2022-12-01T04:31:48.901Z,99133.28
2022-12-01T04:36:53.012Z,99129.88
2022-12-01T04:41:55.835Z,99130.81
2022-12-01T04:46:58.802Z,99129.00
2022-12-01T04:52:03.092Z,99133.38
2022-12-01T04:57:05.919Z,99135.19
2022-12-01T05:02:08.774Z,99136.97
2022-12-01T05:07:14.433Z,99135.88
2022-12-01T05:12:17.737Z,99151.63
2022-12-01T05:17:20.529Z,99153.44
2022-12-01T05:22:56.872Z,99150.09
2022-12-01T05:27:47.427Z,99144.66
2022-12-01T05:32:50.196Z,99155.47
2022-12-01T05:37:54.376Z,99155.81
2022-12-01T05:42:57.347Z,99151.03
2022-12-01T05:48:01.705Z,99153.06
2022-12-01T05:53:06.037Z,99146.84
2022-12-01T05:58:09.549Z,99155.88
2022-12-01T06:03:12.329Z,99157.41
2022-12-01T06:08:16.416Z,99157.59
2022-12-01T06:13:19.589Z,99154.13
2022-12-01T06:18:22.359Z,99157.75
2022-12-01T06:23:30.320Z,99165.88
2022-12-01T06:28:33.600Z,99169.69
2022-12-01T06:33:36.466Z,99166.56
2022-12-01T06:38:40.599Z,99173.72
2022-12-01T06:43:43.316Z,99174.41
2022-12-01T06:48:49.027Z,99186.31
2022-12-01T06:53:57.720Z,99184.56
2022-12-01T06:59:03.916Z,99194.53
2022-12-01T07:04:06.995Z,99195.38
2022-12-01T07:09:11.087Z,99195.88
2022-12-01T07:14:20.362Z,99192.78
2022-12-01T07:19:23.128Z,99206.53
2022-12-01T07:24:27.486Z,99216.25
2022-12-01T07:29:30.326Z,99209.19
2022-12-01T07:34:33.982Z,99217.50
2022-12-01T07:39:38.209Z,99217.91
2022-12-01T07:44:41.030Z,99225.84
2022-12-01T07:49:43.819Z,99224.84
2022-12-01T07:54:49.598Z,99234.94
2022-12-01T07:59:53.004Z,99229.81
2022-12-01T08:04:55.858Z,99235.81
2022-12-01T08:10:00.127Z,99228.88
2022-12-01T08:15:02.999Z,99228.75
2022-12-01T08:20:07.886Z,99235.81
2022-12-01T08:25:13.019Z,99240.41
2022-12-01T08:30:16.994Z,99249.88
2022-12-01T08:35:19.750Z,99244.44
2022-12-01T08:40:24.100Z,99244.22
2022-12-01T08:45:30.067Z,99243.97
2022-12-01T08:50:32.864Z,99247.94
2022-12-01T08:55:37.429Z,99259.81
2022-12-01T09:00:40.409Z,99248.88
2022-12-01T09:05:43.629Z,99255.63
2022-12-01T09:10:53.480Z,99262.47
2022-12-01T09:15:58.425Z,99254.22
2022-12-01T09:21:10.088Z,99267.75
2022-12-01T09:26:19.072Z,99269.69
2022-12-01T09:31:23.457Z,99265.44
2022-12-01T09:36:31.853Z,99272.44
2022-12-01T09:41:40.279Z,99271.66
2022-12-01T09:46:47.610Z,99266.66
2022-12-01T09:51:51.017Z,99272.56
2022-12-01T09:56:56.068Z,99271.56
2022-12-01T10:02:04.684Z,99271.31
2022-12-01T10:07:19.010Z,99273.72
2022-12-01T10:12:27.884Z,99263.63
2022-12-01T10:17:40.094Z,99269.00
2022-12-01T10:23:05.524Z,99263.31
2022-12-01T10:28:27.112Z,99250.81
2022-12-01T10:33:37.844Z,99255.94
2022-12-01T10:38:40.710Z,99251.38
2022-12-01T10:43:47.444Z,99234.97
2022-12-01T10:48:55.767Z,99239.84
2022-12-01T10:54:00.421Z,99236.63
2022-12-01T10:59:18.318Z,99232.44
2022-12-01T11:04:34.516Z,99233.28
2022-12-01T11:09:37.364Z,99231.00
2022-12-01T11:14:45.998Z,99227.78
2022-12-01T11:19:49.478Z,99213.44
2022-12-01T11:25:04.150Z,99218.53
2022-12-01T11:30:22.139Z,99222.47
2022-12-01T11:35:27.821Z,99216.97
2022-12-01T11:40:32.932Z,99212.63
2022-12-01T11:45:40.433Z,99203.31
2022-12-01T11:51:04.156Z,99205.72
2022-12-01T11:56:17.228Z,99201.94
2022-12-01T12:01:42.175Z,99207.63
2022-12-01T12:06:54.746Z,99198.75
2022-12-01T12:12:06.302Z,99197.88
2022-12-01T12:17:38.076Z,99188.63
2022-12-01T12:22:55.403Z,99190.09
2022-12-01T12:28:20.785Z,99182.56
2022-12-01T12:33:54.266Z,99187.44
2022-12-01T12:39:15.113Z,99187.16
2022-12-01T12:44:39.444Z,99181.75
2022-12-01T12:49:48.725Z,99173.44
2022-12-01T12:54:56.603Z,99176.41
2022-12-01T13:00:03.976Z,99183.47
2022-12-01T13:05:17.161Z,99182.25
2022-12-01T13:10:29.441Z,99178.13
2022-12-01T13:15:36.485Z,99180.94
2022-12-01T13:20:42.030Z,99179.31
2022-12-01T13:25:47.739Z,99176.41
2022-12-01T13:31:02.846Z,99172.44
2022-12-01T13:41:38.457Z,99169.81
2022-12-01T13:46:53.434Z,99167.00
2022-12-01T13:52:32.980Z,99174.25
2022-12-01T13:57:39.175Z,99160.31
2022-12-01T14:02:42.069Z,99162.13
2022-12-01T14:07:45.178Z,99160.59
2022-12-01T14:12:51.182Z,99154.81
2022-12-01T14:18:01.988Z,99156.31
2022-12-01T14:23:24.200Z,99158.00
2022-12-01T14:29:00.430Z,99162.06
2022-12-01T14:34:10.375Z,99159.88
2022-12-01T14:39:19.924Z,99158.94
2022-12-01T14:44:28.827Z,99157.28
2022-12-01T14:49:39.281Z,99160.91
2022-12-01T14:54:46.257Z,99162.63
2022-12-01T15:00:03.445Z,99159.75
2022-12-01T15:05:12.041Z,99159.53
2022-12-01T15:10:19.434Z,99149.75
2022-12-01T15:15:25.796Z,99157.06
2022-12-01T15:20:32.572Z,99152.63
2022-12-01T15:25:37.075Z,99155.03
2022-12-01T15:30:40.651Z,99153.25
2022-12-01T15:35:47.238Z,99163.34
2022-12-01T15:41:28.421Z,99159.00
2022-12-01T15:46:16.622Z,99161.16
2022-12-01T15:51:26.872Z,99163.44
2022-12-01T15:56:32.816Z,99171.88
2022-12-01T16:01:37.197Z,99170.53
2022-12-01T16:06:42.215Z,99178.97
2022-12-01T16:12:20.794Z,99180.38
2022-12-01T16:17:25.568Z,99174.94
2022-12-01T16:22:29.934Z,99188.94
2022-12-01T16:27:33.313Z,99201.56
2022-12-01T16:32:39.029Z,99200.13
2022-12-01T16:37:43.233Z,99200.34
2022-12-01T16:42:46.253Z,99196.00
2022-12-01T16:47:50.230Z,99182.09
2022-12-01T16:52:54.587Z,99189.78
2022-12-01T16:57:57.445Z,99188.94
2022-12-01T17:03:00.800Z,99189.00
2022-12-01T17:08:05.955Z,99183.78
2022-12-01T17:13:08.866Z,99178.97
2022-12-01T17:18:12.596Z,99174.25
2022-12-01T17:23:16.779Z,99182.25
2022-12-01T17:28:19.617Z,99186.03
2022-12-01T17:33:22.446Z,99190.59
2022-12-01T17:38:26.666Z,99189.25
2022-12-01T17:43:29.476Z,99183.78
2022-12-01T17:48:36.466Z,99189.81
2022-12-01T17:53:40.724Z,99190.53
2022-12-01T17:58:43.735Z,99191.75
2022-12-01T18:03:46.950Z,99205.81
2022-12-01T18:08:51.107Z,99201.91
2022-12-01T18:13:54.624Z,99190.97
2022-12-01T18:18:58.997Z,99200.97
2022-12-01T18:24:04.870Z,99200.25
2022-12-01T18:29:12.408Z,99211.38
2022-12-01T18:34:15.132Z,99210.22
2022-12-01T18:39:20.329Z,99218.22
2022-12-01T18:44:23.280Z,99209.66
2022-12-01T18:49:26.598Z,99208.78
2022-12-01T18:54:32.174Z,99211.91
2022-12-01T18:59:34.938Z,99208.44
2022-12-01T19:04:37.862Z,99192.81
2022-12-01T19:09:41.995Z,99193.75
2022-12-01T19:14:44.842Z,99194.06
2022-12-01T19:19:47.789Z,99193.69
2022-12-01T19:24:54.253Z,99184.75
2022-12-01T19:29:57.245Z,99183.69
2022-12-01T19:35:00.462Z,99178.56
2022-12-01T19:40:09.115Z,99172.34
2022-12-01T19:45:12.345Z,99174.94
2022-12-01T19:50:15.200Z,99170.72
2022-12-01T19:55:19.379Z,99173.38
2022-12-01T20:00:22.855Z,99166.38
2022-12-01T20:05:25.753Z,99160.53
2022-12-01T20:10:30.323Z,99163.28
2022-12-01T20:15:33.941Z,99165.25
2022-12-01T20:20:36.926Z,99161.06
2022-12-01T20:25:41.054Z,99167.63
2022-12-01T20:30:44.489Z,99171.19
2022-12-01T20:35:47.341Z,99169.69
2022-12-01T20:40:52.681Z,99170.63
2022-12-01T20:45:55.769Z,99164.63
2022-12-01T20:51:01.051Z,99161.22
2022-12-01T20:56:05.624Z,99166.44
2022-12-01T21:01:10.215Z,99156.81
2022-12-01T21:06:15.346Z,99152.22
2022-12-01T21:11:42.476Z,99150.63
2022-12-01T21:16:49.090Z,99151.84
2022-12-01T21:21:52.035Z,99151.69
2022-12-01T21:27:01.444Z,99148.97
2022-12-01T21:32:13.761Z,99143.84
2022-12-01T21:37:22.278Z,99146.31
2022-12-01T21:42:28.449Z,99150.91
2022-12-01T21:47:31.609Z,99152.47
2022-12-01T21:52:39.815Z,99151.69
2022-12-01T21:57:46.214Z,99141.06
2022-12-01T22:02:52.480Z,99141.00
2022-12-01T22:08:00.560Z,99145.41
2022-12-01T22:13:10.215Z,99147.81
2022-12-01T22:18:22.958Z,99143.38
2022-12-01T22:23:32.893Z,99145.25
2022-12-01T22:28:37.217Z,99147.97
2022-12-01T22:33:39.990Z,99132.84
2022-12-01T22:38:42.811Z,99128.75
2022-12-01T22:43:49.079Z,99118.88
2022-12-01T22:48:53.734Z,99118.84
2022-12-01T22:54:00.774Z,99124.88
2022-12-01T22:59:10.844Z,99124.00
2022-12-01T23:04:21.307Z,99122.09
2022-12-01T23:09:28.618Z,99110.78
2022-12-01T23:14:35.043Z,99096.50
2022-12-01T23:19:37.814Z,99097.66
2022-12-01T23:24:40.870Z,99101.78
2022-12-01T23:29:45.194Z,99085.25
2022-12-01T23:34:48.149Z,99082.41
2022-12-01T23:39:52.245Z,99074.50
2022-12-01T23:44:56.477Z,99072.78
2022-12-01T23:50:04.072Z,99066.59
2022-12-01T23:55:20.668Z,99051.91
